createdAt,value
2019-06-20T00:02:23.753Z,68.70
2019-06-20T00:04:49.925Z,68.30
2019-06-20T00:07:16.242Z,68.50
2019-06-20T00:09:42.585Z,68.40
2019-06-20T00:12:08.771Z,69.10
2019-06-20T00:14:34.950Z,69.40
2019-06-20T00:17:01.115Z,69.20
2019-06-20T00:19:27.305Z,70.40
2019-06-20T00:21:53.501Z,69.30
2019-06-20T00:24:39.561Z,68.90
2019-06-20T00:27:05.745Z,68.80
2019-06-20T00:29:31.945Z,68.50
2019-06-20T00:31:58.154Z,67.70
2019-06-20T00:34:24.348Z,67.80
2019-06-20T00:36:51.368Z,67.50
2019-06-20T00:39:17.709Z,67.80
2019-06-20T00:41:43.878Z,68.30
2019-06-20T00:44:10.054Z,67.40
2019-06-20T00:46:36.239Z,67.00
2019-06-20T00:49:02.925Z,67.00
2019-06-20T00:51:29.111Z,67.10
2019-06-20T00:53:55.296Z,67.60
2019-06-20T00:56:21.492Z,67.70
2019-06-20T00:58:49.373Z,68.00
2019-06-20T01:01:15.555Z,68.20
2019-06-20T01:03:41.758Z,68.40
2019-06-20T01:06:08.034Z,68.30
2019-06-20T01:08:34.221Z,68.90
2019-06-20T01:11:00.452Z,69.20
2019-06-20T01:13:33.465Z,70.00
2019-06-20T01:15:54.709Z,69.10
2019-06-20T01:18:20.888Z,67.80
2019-06-20T01:20:54.930Z,67.60
2019-06-20T01:23:21.113Z,66.80
2019-06-20T01:25:47.473Z,67.00
2019-06-20T01:28:13.673Z,66.40
2019-06-20T01:30:40.151Z,66.30
2019-06-20T01:33:06.536Z,66.30
2019-06-20T01:35:33.101Z,66.40
2019-06-20T01:37:59.270Z,66.50
2019-06-20T01:40:26.453Z,66.40
2019-06-20T01:42:52.637Z,67.10
2019-06-20T01:45:19.918Z,67.30
2019-06-20T01:47:46.099Z,68.20
2019-06-20T01:50:12.986Z,70.00
2019-06-20T01:52:39.146Z,72.40
2019-06-20T01:55:05.521Z,75.00
2019-06-20T01:57:32.701Z,76.00
2019-06-20T01:59:58.984Z,76.80
2019-06-20T02:02:25.153Z,77.90
2019-06-20T02:04:51.336Z,78.00
2019-06-20T02:07:17.517Z,78.60
2019-06-20T02:09:43.785Z,78.80
2019-06-20T02:12:10.236Z,79.20
2019-06-20T02:14:36.430Z,79.50
2019-06-20T02:17:02.982Z,79.60
2019-06-20T02:19:29.145Z,80.20
2019-06-20T02:21:55.383Z,81.40
2019-06-20T02:24:21.566Z,81.80
2019-06-20T02:26:47.725Z,84.40
2019-06-20T02:29:14.246Z,85.00
2019-06-20T02:31:40.428Z,84.80
2019-06-20T02:34:06.804Z,83.30
2019-06-20T02:36:33.097Z,82.80
2019-06-20T02:38:59.258Z,85.90
2019-06-20T02:41:25.461Z,87.50
2019-06-20T02:43:51.635Z,84.60
2019-06-20T02:46:18.004Z,87.70
2019-06-20T02:48:44.186Z,87.20
2019-06-20T02:51:10.353Z,85.90
2019-06-20T02:53:37.134Z,88.80
2019-06-20T02:56:04.413Z,86.80
2019-06-20T02:58:30.592Z,87.40
2019-06-20T03:00:59.185Z,86.80
2019-06-20T03:03:27.485Z,87.10
2019-06-20T03:05:54.468Z,87.80
2019-06-20T03:08:20.784Z,89.20
2019-06-20T03:10:46.945Z,89.80
2019-06-20T03:13:13.129Z,89.20
2019-06-20T03:15:39.290Z,90.00
2019-06-20T03:18:05.484Z,89.90
2019-06-20T03:20:31.642Z,89.10
2019-06-20T03:22:58.019Z,88.80
2019-06-20T03:25:24.169Z,88.80
2019-06-20T03:27:50.322Z,89.20
2019-06-20T03:30:16.766Z,89.60
2019-06-20T03:32:43.025Z,89.70
2019-06-20T03:35:10.402Z,88.40
2019-06-20T03:37:36.563Z,89.10
2019-06-20T03:40:06.183Z,89.10
2019-06-20T03:42:32.394Z,89.90
2019-06-20T03:45:02.432Z,88.70
2019-06-20T03:47:26.746Z,87.10
2019-06-20T03:49:52.912Z,90.00
2019-06-20T03:52:19.077Z,90.00
2019-06-20T03:54:45.353Z,90.60
2019-06-20T03:57:11.508Z,90.10
2019-06-20T03:59:38.697Z,91.10
2019-06-20T04:02:04.905Z,90.90
2019-06-20T04:04:31.084Z,90.70
2019-06-20T04:06:57.278Z,90.80
2019-06-20T04:09:23.869Z,91.70
2019-06-20T04:11:50.040Z,91.50
2019-06-20T04:14:16.217Z,92.00
2019-06-20T04:16:42.421Z,92.00
2019-06-20T04:19:08.589Z,91.90
2019-06-20T04:21:34.789Z,92.10
2019-06-20T04:24:00.946Z,91.80
2019-06-20T04:26:28.342Z,91.50
2019-06-20T04:28:54.757Z,91.40
2019-06-20T04:31:20.956Z,91.20
2019-06-20T04:33:47.233Z,91.20
2019-06-20T04:36:25.431Z,91.10
2019-06-20T04:38:50.241Z,90.60
2019-06-20T04:41:16.418Z,90.70
2019-06-20T04:43:42.705Z,90.10
2019-06-20T04:46:19.406Z,90.10
2019-06-20T04:48:45.586Z,90.10
2019-06-20T04:51:11.778Z,90.30
2019-06-20T04:53:38.047Z,89.50
2019-06-20T04:56:05.720Z,89.80
2019-06-20T04:58:32.195Z,89.00
2019-06-20T05:00:58.480Z,88.30
2019-06-20T05:03:25.847Z,88.90
2019-06-20T05:05:52.001Z,87.20
2019-06-20T05:08:18.290Z,88.30
2019-06-20T05:10:44.449Z,88.20
2019-06-20T05:13:10.906Z,88.60
2019-06-20T05:15:51.522Z,89.60
2019-06-20T05:18:05.225Z,89.80
2019-06-20T05:20:32.774Z,90.10
2019-06-20T05:22:58.945Z,90.20
2019-06-20T05:25:25.435Z,90.60
2019-06-20T05:27:51.607Z,90.10
2019-06-20T05:30:18.016Z,88.70
2019-06-20T05:32:44.270Z,86.20
2019-06-20T05:35:10.682Z,87.80
2019-06-20T05:37:37.188Z,88.70
2019-06-20T05:40:05.780Z,88.10
2019-06-20T05:42:31.966Z,89.60
2019-06-20T05:44:58.152Z,88.30
2019-06-20T05:47:24.343Z,87.60
2019-06-20T05:49:50.540Z,86.40
2019-06-20T05:52:17.483Z,84.40
2019-06-20T05:54:43.802Z,84.60
2019-06-20T05:57:10.119Z,82.60
2019-06-20T05:59:36.369Z,80.10
2019-06-20T06:02:02.551Z,77.70
2019-06-20T06:04:29.174Z,73.30
2019-06-20T06:06:55.441Z,66.20
2019-06-20T06:09:21.606Z,57.50
2019-06-20T06:11:47.776Z,55.90
2019-06-20T06:14:13.954Z,55.30
2019-06-20T06:16:44.015Z,56.60
2019-06-20T06:19:08.234Z,56.70
2019-06-20T06:21:34.401Z,58.10
2019-06-20T06:24:00.581Z,59.00
2019-06-20T06:26:26.762Z,62.30
2019-06-20T06:28:52.937Z,62.30
2019-06-20T06:31:19.125Z,62.80
2019-06-20T06:33:45.273Z,62.50
2019-06-20T06:36:11.478Z,61.70
2019-06-20T06:38:37.654Z,62.40
2019-06-20T06:41:03.936Z,61.00
2019-06-20T06:43:30.165Z,61.50
2019-06-20T06:45:56.448Z,61.00
2019-06-20T06:48:22.633Z,59.40
2019-06-20T06:50:48.843Z,59.20
2019-06-20T06:53:15.352Z,60.60
2019-06-20T06:55:41.517Z,59.50
2019-06-20T06:58:07.681Z,59.70
2019-06-20T07:00:33.867Z,60.80
2019-06-20T07:03:00.033Z,60.90
2019-06-20T07:05:26.341Z,61.30
2019-06-20T07:07:52.534Z,60.40
2019-06-20T07:10:19.130Z,57.60
2019-06-20T07:12:45.287Z,53.50
2019-06-20T07:15:12.676Z,47.40
2019-06-20T07:17:39.065Z,42.90
2019-06-20T07:20:06.509Z,43.70
2019-06-20T07:22:32.878Z,43.50
2019-06-20T07:24:59.072Z,46.30
2019-06-20T07:27:25.230Z,47.70
2019-06-20T07:29:51.566Z,46.80
2019-06-20T07:32:17.741Z,47.90
2019-06-20T07:34:43.906Z,45.60
2019-06-20T07:37:10.108Z,47.80
2019-06-20T07:39:36.271Z,46.70
2019-06-20T07:42:02.558Z,45.80
2019-06-20T07:44:28.792Z,43.20
2019-06-20T07:46:54.958Z,41.80
2019-06-20T07:49:21.154Z,38.90
2019-06-20T07:51:47.654Z,35.20
2019-06-20T07:54:13.834Z,33.20
2019-06-20T07:56:39.995Z,33.40
2019-06-20T07:59:06.209Z,35.70
2019-06-20T08:01:32.456Z,36.50
2019-06-20T08:03:58.738Z,38.00
2019-06-20T08:06:24.912Z,37.80
2019-06-20T08:08:51.098Z,40.40
2019-06-20T08:11:17.366Z,36.30
2019-06-20T08:13:43.544Z,36.70
2019-06-20T08:16:09.711Z,38.20
2019-06-20T08:18:35.905Z,38.60
2019-06-20T08:21:02.077Z,39.60
2019-06-20T08:23:28.446Z,38.50
2019-06-20T08:25:55.749Z,40.80
2019-06-20T08:28:22.759Z,41.20
2019-06-20T08:30:49.014Z,40.40
2019-06-20T08:33:15.199Z,37.90
2019-06-20T08:35:41.360Z,35.90
2019-06-20T08:38:07.676Z,34.00
2019-06-20T08:40:36.105Z,31.00
2019-06-20T08:43:04.134Z,29.40
2019-06-20T08:45:31.981Z,31.50
2019-06-20T08:47:58.380Z,34.00
2019-06-20T08:50:29.108Z,38.00
2019-06-20T08:52:56.618Z,39.80
2019-06-20T08:55:23.816Z,41.70
2019-06-20T08:57:50.107Z,40.50
2019-06-20T09:00:16.891Z,42.50
2019-06-20T09:02:43.075Z,41.50
2019-06-20T09:05:10.440Z,38.80
2019-06-20T09:07:36.947Z,38.80
2019-06-20T09:10:04.649Z,38.50
2019-06-20T09:12:30.812Z,40.30
2019-06-20T09:14:57.331Z,40.70
2019-06-20T09:17:23.614Z,41.90
2019-06-20T09:19:49.805Z,39.60
2019-06-20T09:22:15.982Z,39.40
2019-06-20T09:24:42.149Z,40.00
2019-06-20T09:27:08.343Z,41.00
2019-06-20T09:29:41.774Z,41.50
2019-06-20T09:32:04.659Z,36.70
2019-06-20T09:34:33.081Z,33.30
2019-06-20T09:36:59.914Z,31.00
2019-06-20T09:39:26.192Z,29.60
2019-06-20T09:41:52.706Z,29.00
2019-06-20T09:44:19.128Z,28.80
2019-06-20T09:46:45.384Z,31.60
2019-06-20T09:49:11.604Z,33.60
2019-06-20T09:51:38.012Z,31.00
2019-06-20T09:54:04.285Z,28.70
2019-06-20T09:56:32.053Z,28.90
2019-06-20T09:59:02.810Z,26.60
2019-06-20T10:01:30.472Z,26.20
2019-06-20T10:03:56.966Z,25.90
2019-06-20T10:06:23.287Z,26.60
2019-06-20T10:08:52.281Z,27.00
2019-06-20T10:11:18.820Z,26.90
2019-06-20T10:13:46.864Z,27.00
2019-06-20T10:16:13.425Z,25.90
2019-06-20T10:18:40.201Z,26.30
2019-06-20T10:21:06.534Z,27.30
2019-06-20T10:23:32.705Z,29.40
2019-06-20T10:25:59.033Z,29.60
2019-06-20T10:28:25.222Z,30.00
2019-06-20T10:30:51.492Z,31.40
2019-06-20T10:33:18.640Z,31.10
2019-06-20T10:35:45.850Z,31.10
2019-06-20T10:38:12.964Z,33.30
2019-06-20T10:40:39.186Z,32.70
2019-06-20T10:43:05.353Z,30.00
2019-06-20T10:45:32.222Z,27.70
2019-06-20T10:47:58.450Z,25.80
2019-06-20T10:50:25.253Z,25.90
2019-06-20T10:52:52.328Z,26.90
2019-06-20T10:55:19.951Z,28.30
2019-06-20T10:57:48.008Z,29.10
2019-06-20T11:00:30.335Z,32.50
2019-06-20T11:02:45.240Z,33.30
2019-06-20T11:05:11.990Z,33.20
2019-06-20T11:07:38.878Z,31.20
2019-06-20T11:10:10.641Z,33.30
2019-06-20T11:12:47.890Z,37.30
2019-06-20T11:15:09.918Z,37.50
2019-06-20T11:17:38.566Z,36.10
2019-06-20T11:20:07.688Z,32.30
2019-06-20T11:22:34.059Z,30.00
2019-06-20T11:25:00.344Z,30.90
2019-06-20T11:27:26.555Z,32.30
2019-06-20T11:29:52.811Z,31.50
2019-06-20T11:32:19.150Z,30.80
2019-06-20T11:34:45.493Z,29.70
2019-06-20T11:37:11.790Z,29.30
2019-06-20T11:39:38.907Z,29.00
2019-06-20T11:42:05.232Z,28.90
2019-06-20T11:44:31.435Z,29.10
2019-06-20T11:46:57.658Z,29.30
2019-06-20T11:49:24.641Z,28.90
2019-06-20T11:51:50.845Z,29.00
2019-06-20T11:54:17.120Z,29.50
2019-06-20T11:56:43.391Z,29.80
2019-06-20T11:59:09.594Z,35.90
2019-06-20T12:01:39.547Z,37.00
2019-06-20T12:04:05.027Z,41.20
2019-06-20T12:06:31.330Z,42.20
2019-06-20T12:08:57.524Z,43.50
2019-06-20T12:11:25.109Z,41.80
2019-06-20T12:13:51.347Z,45.10
2019-06-20T12:16:17.632Z,43.10
2019-06-20T12:18:45.120Z,46.70
2019-06-20T12:21:11.472Z,45.30
2019-06-20T12:23:38.089Z,45.40
2019-06-20T12:26:05.437Z,45.40
2019-06-20T12:28:31.661Z,43.10
2019-06-20T12:30:57.808Z,45.80
2019-06-20T12:33:24.970Z,45.30
2019-06-20T12:35:51.150Z,43.90
2019-06-20T12:38:17.344Z,43.00
2019-06-20T12:40:44.106Z,42.50
2019-06-20T12:43:10.443Z,43.80
2019-06-20T12:45:36.634Z,43.50
2019-06-20T12:48:02.969Z,43.80
2019-06-20T12:50:29.275Z,44.40
2019-06-20T12:52:55.429Z,46.10
2019-06-20T12:55:22.640Z,45.70
2019-06-20T12:57:48.967Z,45.40
2019-06-20T13:00:17.747Z,44.10
2019-06-20T13:02:45.451Z,44.70
2019-06-20T13:05:14.415Z,44.00
2019-06-20T13:07:42.218Z,44.20
2019-06-20T13:10:10.725Z,45.50
2019-06-20T13:12:37.016Z,45.50
2019-06-20T13:15:05.016Z,46.80
2019-06-20T13:17:31.496Z,46.50
2019-06-20T13:19:57.838Z,46.90
2019-06-20T13:22:24.106Z,47.60
2019-06-20T13:24:50.456Z,48.20
2019-06-20T13:27:16.719Z,49.80
2019-06-20T13:29:42.925Z,51.10
2019-06-20T13:32:09.084Z,52.10
2019-06-20T13:34:36.292Z,54.10
2019-06-20T13:37:02.642Z,54.90
2019-06-20T13:39:28.849Z,56.30
2019-06-20T13:41:55.063Z,57.40
2019-06-20T13:44:21.777Z,57.40
2019-06-20T13:46:48.996Z,59.00
2019-06-20T13:49:15.328Z,58.90
2019-06-20T13:51:41.965Z,59.10
2019-06-20T13:54:08.501Z,59.70
2019-06-20T13:56:34.693Z,60.40
2019-06-20T13:59:01.060Z,61.00
2019-06-20T14:01:27.471Z,61.60
2019-06-20T14:03:53.692Z,61.70
2019-06-20T14:06:20.048Z,62.30
2019-06-20T14:08:47.423Z,62.00
2019-06-20T14:11:13.805Z,63.30
2019-06-20T14:13:41.584Z,65.30
2019-06-20T14:16:08.629Z,66.50
2019-06-20T14:18:34.836Z,71.40
2019-06-20T14:21:01.088Z,78.60
2019-06-20T14:23:27.715Z,87.00
2019-06-20T14:25:56.102Z,91.80
2019-06-20T14:28:22.573Z,93.80
2019-06-20T14:30:48.850Z,96.00
2019-06-20T14:33:15.054Z,97.50
2019-06-20T14:35:44.000Z,98.20
2019-06-20T14:38:10.625Z,98.90
2019-06-20T14:40:36.867Z,99.10
2019-06-20T14:43:03.031Z,99.10
2019-06-20T14:45:29.279Z,99.30
2019-06-20T14:47:55.557Z,98.70
2019-06-20T14:50:22.015Z,99.20
2019-06-20T14:52:49.954Z,99.10
2019-06-20T14:55:17.788Z,99.30
2019-06-20T14:57:45.245Z,99.60
2019-06-20T15:00:13.523Z,99.20
2019-06-20T15:02:39.715Z,99.00
2019-06-20T15:05:15.433Z,99.30
2019-06-20T15:07:42.097Z,99.40
2019-06-20T15:10:08.859Z,99.10
2019-06-20T15:12:35.026Z,98.80
2019-06-20T15:15:01.316Z,99.20
2019-06-20T15:17:27.631Z,98.70
2019-06-20T15:19:54.374Z,98.90
2019-06-20T15:22:20.993Z,98.90
2019-06-20T15:24:50.400Z,99.00
2019-06-20T15:27:15.377Z,99.00
2019-06-20T15:29:42.637Z,99.10
2019-06-20T15:32:08.827Z,99.40
2019-06-20T15:34:34.994Z,99.60
2019-06-20T15:37:01.244Z,99.90
2019-06-20T15:39:27.480Z,99.90
2019-06-20T15:41:54.209Z,99.90
2019-06-20T15:44:20.500Z,99.90
2019-06-20T15:46:48.311Z,99.90
2019-06-20T15:49:16.408Z,99.90
2019-06-20T15:51:44.209Z,99.90
2019-06-20T15:54:10.514Z,99.90
2019-06-20T15:56:36.728Z,99.90
2019-06-20T15:59:02.894Z,99.90
2019-06-20T16:01:29.128Z,99.90
2019-06-20T16:03:56.324Z,99.90
2019-06-20T16:06:22.517Z,99.50
2019-06-20T16:08:48.751Z,98.40
2019-06-20T16:11:14.915Z,97.40
2019-06-20T16:13:41.134Z,96.90
2019-06-20T16:16:07.405Z,95.70
2019-06-20T16:18:33.608Z,95.00
2019-06-20T16:20:59.859Z,95.10
2019-06-20T16:23:26.188Z,92.00
2019-06-20T16:25:52.376Z,93.20
2019-06-20T16:28:18.542Z,92.20
2019-06-20T16:30:44.710Z,92.40
2019-06-20T16:33:24.069Z,92.10
2019-06-20T16:35:39.106Z,91.20
2019-06-20T16:38:05.421Z,91.10
2019-06-20T16:40:41.256Z,91.20
2019-06-20T16:43:07.625Z,92.00
2019-06-20T16:45:34.132Z,92.70
2019-06-20T16:48:00.420Z,93.00
2019-06-20T16:50:26.706Z,92.70
2019-06-20T16:52:52.886Z,93.40
2019-06-20T16:55:19.387Z,93.60
2019-06-20T16:57:45.673Z,93.80
2019-06-20T17:00:13.042Z,94.80
2019-06-20T17:02:39.741Z,95.10
2019-06-20T17:05:07.145Z,95.10
2019-06-20T17:07:33.434Z,94.90
2019-06-20T17:09:59.603Z,95.40
2019-06-20T17:12:25.856Z,95.30
2019-06-20T17:14:52.483Z,95.50
2019-06-20T17:17:18.681Z,96.40
2019-06-20T17:19:44.876Z,96.20
2019-06-20T17:22:11.213Z,96.40
2019-06-20T17:24:37.557Z,96.30
2019-06-20T17:27:03.728Z,96.00
2019-06-20T17:29:30.321Z,95.70
2019-06-20T17:31:57.498Z,95.90
2019-06-20T17:34:23.854Z,96.30
2019-06-20T17:36:50.050Z,96.90
2019-06-20T17:39:16.374Z,97.70
2019-06-20T17:41:54.859Z,98.10
2019-06-20T17:44:10.687Z,97.90
2019-06-20T17:46:36.908Z,97.60
2019-06-20T17:49:03.306Z,97.70
2019-06-20T17:51:29.525Z,97.20
2019-06-20T17:53:55.697Z,97.80
2019-06-20T17:56:21.861Z,97.50
2019-06-20T17:58:48.078Z,97.20
2019-06-20T18:01:14.357Z,97.70
2019-06-20T18:03:40.536Z,97.40
2019-06-20T18:06:06.761Z,98.40
2019-06-20T18:08:33.106Z,97.80
2019-06-20T18:11:00.525Z,97.90
2019-06-20T18:13:26.707Z,98.00
2019-06-20T18:15:53.014Z,98.60
2019-06-20T18:18:19.185Z,98.40
2019-06-20T18:20:45.374Z,98.60
2019-06-20T18:23:11.588Z,98.90
2019-06-20T18:25:37.769Z,99.40
2019-06-20T18:28:04.344Z,99.40
2019-06-20T18:30:37.212Z,99.20
2019-06-20T18:33:03.512Z,99.50
2019-06-20T18:35:29.708Z,99.50
2019-06-20T18:37:56.196Z,99.70
2019-06-20T18:40:22.793Z,99.90
2019-06-20T18:42:49.096Z,99.90
2019-06-20T18:45:15.402Z,99.90
2019-06-20T18:47:41.797Z,99.90
2019-06-20T18:50:08.601Z,99.90
2019-06-20T18:52:48.166Z,99.90
2019-06-20T18:55:07.021Z,99.90
2019-06-20T18:57:33.290Z,99.90
2019-06-20T18:59:59.658Z,99.90
2019-06-20T19:02:25.831Z,99.90
2019-06-20T19:04:52.050Z,99.90
2019-06-20T19:07:18.278Z,99.90
2019-06-20T19:09:44.553Z,99.90
2019-06-20T19:12:10.733Z,99.90
2019-06-20T19:14:36.961Z,99.90
2019-06-20T19:17:03.448Z,99.90
2019-06-20T19:19:29.772Z,99.90
2019-06-20T19:21:56.337Z,99.90
2019-06-20T19:24:22.501Z,99.90
2019-06-20T19:26:48.702Z,99.90
2019-06-20T19:29:15.060Z,99.90
2019-06-20T19:31:41.236Z,99.90
2019-06-20T19:34:07.429Z,99.90
2019-06-20T19:36:33.602Z,99.90
2019-06-20T19:38:59.809Z,99.90
2019-06-20T19:41:26.200Z,99.90
2019-06-20T19:43:52.388Z,99.90
2019-06-20T19:46:18.557Z,99.90
2019-06-20T19:48:44.987Z,99.90
2019-06-20T19:51:11.380Z,99.90
2019-06-20T19:53:37.668Z,99.90
2019-06-20T19:56:04.177Z,99.90
2019-06-20T19:58:30.368Z,99.90
2019-06-20T20:00:56.647Z,99.90
2019-06-20T20:03:23.040Z,99.90
2019-06-20T20:05:49.221Z,99.90
2019-06-20T20:08:15.814Z,99.90
2019-06-20T20:10:47.485Z,99.90
2019-06-20T20:13:15.410Z,99.90
2019-06-20T20:15:42.766Z,99.90
2019-06-20T20:18:09.317Z,99.90
2019-06-20T20:20:35.562Z,99.90
2019-06-20T20:23:01.902Z,99.90
2019-06-20T20:25:28.255Z,99.90
2019-06-20T20:27:54.483Z,99.90
2019-06-20T20:30:21.261Z,99.90
2019-06-20T20:32:47.479Z,99.90
2019-06-20T20:35:13.699Z,99.90
2019-06-20T20:37:39.921Z,99.90
2019-06-20T20:40:08.321Z,99.90
2019-06-20T20:42:34.505Z,99.90
2019-06-20T20:45:00.677Z,99.90
2019-06-20T20:47:28.475Z,99.90
2019-06-20T20:49:54.879Z,99.90
2019-06-20T20:52:21.428Z,99.90
2019-06-20T20:54:47.685Z,99.90
2019-06-20T20:57:13.856Z,99.90
2019-06-20T20:59:40.077Z,99.90
2019-06-20T21:02:06.528Z,99.90
2019-06-20T21:04:32.726Z,99.90
2019-06-20T21:06:58.912Z,99.90
2019-06-20T21:09:25.101Z,99.90
2019-06-20T21:11:51.262Z,99.90
2019-06-20T21:14:17.473Z,99.90
2019-06-20T21:16:43.764Z,99.90
2019-06-20T21:19:09.977Z,99.90
2019-06-20T21:21:36.184Z,99.90
2019-06-20T21:24:02.675Z,99.90
2019-06-20T21:26:28.931Z,99.90
2019-06-20T21:28:55.103Z,99.90
2019-06-20T21:31:21.310Z,99.90
2019-06-20T21:33:47.653Z,99.90
2019-06-20T21:36:13.938Z,99.90
2019-06-20T21:38:40.241Z,99.90
2019-06-20T21:41:06.413Z,99.90
2019-06-20T21:43:32.608Z,99.90
2019-06-20T21:45:58.927Z,99.90
2019-06-20T21:48:25.213Z,99.90
2019-06-20T21:50:51.406Z,99.90
2019-06-20T21:53:17.769Z,99.90
2019-06-20T21:55:43.972Z,99.90
2019-06-20T21:58:10.137Z,99.90
2019-06-20T22:00:42.113Z,99.90
2019-06-20T22:03:10.862Z,99.90
2019-06-20T22:05:38.360Z,99.90
2019-06-20T22:08:05.352Z,99.90
2019-06-20T22:10:31.513Z,99.90
2019-06-20T22:12:57.685Z,99.90
2019-06-20T22:15:23.961Z,99.90
2019-06-20T22:17:50.145Z,99.90
2019-06-20T22:20:17.345Z,99.90
2019-06-20T22:22:43.521Z,99.90
2019-06-20T22:25:10.307Z,99.90
2019-06-20T22:27:36.595Z,99.90
2019-06-20T22:30:06.595Z,99.90
2019-06-20T22:32:32.762Z,99.90
2019-06-20T22:34:59.003Z,99.90
2019-06-20T22:37:25.264Z,99.90
2019-06-20T22:39:51.493Z,99.90
2019-06-20T22:42:17.682Z,99.90
2019-06-20T22:44:43.842Z,99.90
2019-06-20T22:47:10.028Z,99.90
2019-06-20T22:49:36.779Z,99.90
2019-06-20T22:52:03.052Z,99.90
2019-06-20T22:54:29.236Z,99.90
2019-06-20T22:56:55.416Z,99.90
2019-06-20T22:59:21.599Z,99.90
2019-06-20T23:01:47.770Z,99.90
2019-06-20T23:04:13.937Z,99.90
2019-06-20T23:06:55.067Z,99.90
2019-06-20T23:09:08.214Z,99.90
2019-06-20T23:11:35.278Z,99.90
2019-06-20T23:14:01.478Z,99.90
2019-06-20T23:16:27.739Z,99.90
2019-06-20T23:18:53.897Z,99.90
2019-06-20T23:21:20.067Z,99.90
2019-06-20T23:23:46.266Z,99.90
2019-06-20T23:26:12.633Z,99.90
2019-06-20T23:28:38.865Z,99.90
2019-06-20T23:31:05.124Z,99.90
2019-06-20T23:33:31.723Z,99.90
2019-06-20T23:35:57.890Z,99.90
2019-06-20T23:38:24.058Z,99.90
2019-06-20T23:40:50.246Z,99.90
2019-06-20T23:43:16.407Z,99.90
2019-06-20T23:45:42.581Z,99.90
2019-06-20T23:48:08.770Z,99.90
2019-06-20T23:50:35.053Z,99.90
2019-06-20T23:53:19.848Z,99.90
2019-06-20T23:55:46.042Z,99.90
2019-06-20T23:58:12.330Z,99.90
